sensor_id;sensor_type;location;lat;lon;timestamp;pressure;altitude;pressure_sealevel;temperature;humidity
78679;BME280;67994;59.334;13.528;2023-07-02T00:00:01;98700.0;;;16.8;83.1
78679;BME280;67994;59.334;13.528;2023-07-02T00:01:00;98700.0;;;16.7;84.2
78679;BME280;67994;59.334;13.528;2023-07-02T00:02:00;98700.0;;;16.6;85.0
78679;BME280;67994;59.334;13.528;2023-07-02T00:03:00;98700.0;;;16.8;84.5
78679;BME280;67994;59.334;13.528;2023-07-02T00:04:00;98700.0;;;16.8;84.8
78679;BME280;67994;59.334;13.528;2023-07-02T00:05:00;98700.0;;;16.9;83.9
78679;BME280;67994;59.334;13.528;2023-07-02T00:06:00;98700.0;;;16.8;84.2
78679;BME280;67994;59.334;13.528;2023-07-02T00:07:00;98700.0;;;16.9;83.6
78679;BME280;67994;59.334;13.528;2023-07-02T00:08:00;98700.0;;;16.9;84.2
78679;BME280;67994;59.334;13.528;2023-07-02T00:09:00;98700.0;;;16.9;83.8
78679;BME280;67994;59.334;13.528;2023-07-02T00:10:00;98700.0;;;16.9;84.0
78679;BME280;67994;59.334;13.528;2023-07-02T00:11:00;98700.0;;;17.0;82.9
78679;BME280;67994;59.334;13.528;2023-07-02T00:12:00;98700.0;;;17.0;83.7
78679;BME280;67994;59.334;13.528;2023-07-02T00:13:00;98700.0;;;17.0;83.3
78679;BME280;67994;59.334;13.528;2023-07-02T00:14:00;98700.0;;;17.0;83.2
78679;BME280;67994;59.334;13.528;2023-07-02T00:15:01;98700.0;;;17.0;83.4
78679;BME280;67994;59.334;13.528;2023-07-02T00:16:00;98700.0;;;17.0;83.4
78679;BME280;67994;59.334;13.528;2023-07-02T00:17:00;98700.0;;;17.0;83.2
78679;BME280;67994;59.334;13.528;2023-07-02T00:18:00;98700.0;;;17.0;83.0
78679;BME280;67994;59.334;13.528;2023-07-02T00:19:00;98700.0;;;17.0;83.0
78679;BME280;67994;59.334;13.528;2023-07-02T00:20:00;98700.0;;;17.0;83.0
78679;BME280;67994;59.334;13.528;2023-07-02T00:21:00;98700.0;;;17.0;82.9
78679;BME280;67994;59.334;13.528;2023-07-02T00:22:00;98700.0;;;17.0;82.8
78679;BME280;67994;59.334;13.528;2023-07-02T00:23:00;98700.0;;;16.9;83.0
78679;BME280;67994;59.334;13.528;2023-07-02T00:24:00;98700.0;;;17.0;83.0
78679;BME280;67994;59.334;13.528;2023-07-02T00:25:00;98700.0;;;16.9;82.9
78679;BME280;67994;59.334;13.528;2023-07-02T00:26:00;98700.0;;;16.9;83.7
78679;BME280;67994;59.334;13.528;2023-07-02T00:27:00;98700.0;;;17.0;83.5
78679;BME280;67994;59.334;13.528;2023-07-02T00:28:00;98700.0;;;16.9;83.4
78679;BME280;67994;59.334;13.528;2023-07-02T00:29:00;98700.0;;;16.9;83.6
78679;BME280;67994;59.334;13.528;2023-07-02T00:30:00;98700.0;;;17.0;83.5
78679;BME280;67994;59.334;13.528;2023-07-02T00:31:00;98700.0;;;16.9;83.5
78679;BME280;67994;59.334;13.528;2023-07-02T00:32:00;98700.0;;;16.8;84.2
78679;BME280;67994;59.334;13.528;2023-07-02T00:33:00;98700.0;;;17.0;83.6
78679;BME280;67994;59.334;13.528;2023-07-02T00:34:00;98700.0;;;17.0;83.8
78679;BME280;67994;59.334;13.528;2023-07-02T00:35:00;98700.0;;;17.0;83.4
78679;BME280;67994;59.334;13.528;2023-07-02T00:36:00;98700.0;;;16.9;83.3
78679;BME280;67994;59.334;13.528;2023-07-02T00:37:00;98700.0;;;16.9;83.8
78679;BME280;67994;59.334;13.528;2023-07-02T00:38:00;98700.0;;;17.0;83.6
78679;BME280;67994;59.334;13.528;2023-07-02T00:39:00;98700.0;;;17.0;83.1
78679;BME280;67994;59.334;13.528;2023-07-02T00:40:00;98700.0;;;17.0;83.1
78679;BME280;67994;59.334;13.528;2023-07-02T00:41:00;98700.0;;;17.0;83.8
78679;BME280;67994;59.334;13.528;2023-07-02T00:42:01;98700.0;;;16.9;83.4
78679;BME280;67994;59.334;13.528;2023-07-02T00:43:00;98700.0;;;16.9;84.0
78679;BME280;67994;59.334;13.528;2023-07-02T00:44:00;98700.0;;;16.9;84.0
78679;BME280;67994;59.334;13.528;2023-07-02T00:45:00;98700.0;;;17.0;83.8
78679;BME280;67994;59.334;13.528;2023-07-02T00:46:00;98700.0;;;17.0;83.9
78679;BME280;67994;59.334;13.528;2023-07-02T00:47:00;98700.0;;;17.0;83.4
78679;BME280;67994;59.334;13.528;2023-07-02T00:48:00;98700.0;;;17.0;83.7
78679;BME280;67994;59.334;13.528;2023-07-02T00:49:01;98700.0;;;17.0;83.5
78679;BME280;67994;59.334;13.528;2023-07-02T00:50:00;98700.0;;;16.9;83.9
78679;BME280;67994;59.334;13.528;2023-07-02T00:51:00;98700.0;;;17.1;83.3
78679;BME280;67994;59.334;13.528;2023-07-02T00:52:00;98700.0;;;17.0;84.4
78679;BME280;67994;59.334;13.528;2023-07-02T00:53:00;98700.0;;;16.9;84.0
78679;BME280;67994;59.334;13.528;2023-07-02T00:54:00;98700.0;;;17.0;84.4
78679;BME280;67994;59.334;13.528;2023-07-02T00:55:00;98700.0;;;16.9;84.4
78679;BME280;67994;59.334;13.528;2023-07-02T00:56:00;98700.0;;;16.9;84.4
78679;BME280;67994;59.334;13.528;2023-07-02T00:57:00;98700.0;;;16.9;84.4
78679;BME280;67994;59.334;13.528;2023-07-02T00:58:00;98700.0;;;16.9;84.4
78679;BME280;67994;59.334;13.528;2023-07-02T00:59:00;98700.0;;;16.9;84.4
78679;BME280;67994;59.334;13.528;2023-07-02T01:00:00;98700.0;;;16.9;84.4
78679;BME280;67994;59.334;13.528;2023-07-02T01:01:00;98700.0;;;16.9;84.4
78679;BME280;67994;59.334;13.528;2023-07-02T01:02:00;98700.0;;;16.9;84.4
78679;BME280;67994;59.334;13.528;2023-07-02T01:03:00;98700.0;;;16.9;84.4
78679;BME280;67994;59.334;13.528;2023-07-02T01:04:01;98700.0;;;16.9;84.4
78679;BME280;67994;59.334;13.528;2023-07-02T01:05:00;98700.0;;;16.9;84.4
78679;BME280;67994;59.334;13.528;2023-07-02T01:06:00;98700.0;;;16.9;84.4
78679;BME280;67994;59.334;13.528;2023-07-02T01:07:00;98700.0;;;16.9;84.4
78679;BME280;67994;59.334;13.528;2023-07-02T01:08:01;98700.0;;;16.9;84.4
78679;BME280;67994;59.334;13.528;2023-07-02T01:09:02;98700.0;;;16.9;84.4
78679;BME280;67994;59.334;13.528;2023-07-02T01:10:00;98700.0;;;16.9;84.4
78679;BME280;67994;59.334;13.528;2023-07-02T01:11:00;98700.0;;;16.9;84.4
78679;BME280;67994;59.334;13.528;2023-07-02T01:12:03;98700.0;;;16.9;84.4
78679;BME280;67994;59.334;13.528;2023-07-02T01:13:05;98700.0;;;16.9;84.4
78679;BME280;67994;59.334;13.528;2023-07-02T01:14:02;98700.0;;;16.9;84.4
78679;BME280;67994;59.334;13.528;2023-07-02T01:15:02;98700.0;;;16.9;84.4
78679;BME280;67994;59.334;13.528;2023-07-02T01:16:00;98700.0;;;16.9;84.4
78679;BME280;67994;59.334;13.528;2023-07-02T01:17:03;98700.0;;;16.9;84.4
78679;BME280;67994;59.334;13.528;2023-07-02T01:18:00;98700.0;;;16.9;84.4
78679;BME280;67994;59.334;13.528;2023-07-02T01:19:04;98700.0;;;16.9;84.4
78679;BME280;67994;59.334;13.528;2023-07-02T01:20:00;98700.0;;;16.9;84.4
78679;BME280;67994;59.334;13.528;2023-07-02T01:21:00;98700.0;;;16.9;84.4
78679;BME280;67994;59.334;13.528;2023-07-02T01:22:01;98700.0;;;16.9;84.4
78679;BME280;67994;59.334;13.528;2023-07-02T01:23:01;98700.0;;;16.9;84.4
78679;BME280;67994;59.334;13.528;2023-07-02T01:24:01;98700.0;;;16.9;84.4
78679;BME280;67994;59.334;13.528;2023-07-02T01:25:00;98700.0;;;16.9;84.4
78679;BME280;67994;59.334;13.528;2023-07-02T01:26:00;98700.0;;;16.9;84.4
78679;BME280;67994;59.334;13.528;2023-07-02T01:27:00;98700.0;;;16.9;84.4
78679;BME280;67994;59.334;13.528;2023-07-02T01:28:00;98700.0;;;16.9;84.4
78679;BME280;67994;59.334;13.528;2023-07-02T01:29:14;98700.0;;;16.9;84.4
78679;BME280;67994;59.334;13.528;2023-07-02T01:30:00;98700.0;;;16.9;84.4
78679;BME280;67994;59.334;13.528;2023-07-02T01:31:00;98700.0;;;16.9;84.4
78679;BME280;67994;59.334;13.528;2023-07-02T01:32:00;98700.0;;;16.9;84.4
78679;BME280;67994;59.334;13.528;2023-07-02T01:33:00;98700.0;;;16.9;84.4
78679;BME280;67994;59.334;13.528;2023-07-02T01:34:00;98700.0;;;16.9;84.4
78679;BME280;67994;59.334;13.528;2023-07-02T01:35:00;98700.0;;;16.9;84.4
78679;BME280;67994;59.334;13.528;2023-07-02T01:36:00;98700.0;;;16.9;84.4
78679;BME280;67994;59.334;13.528;2023-07-02T01:37:00;98700.0;;;16.9;84.4
78679;BME280;67994;59.334;13.528;2023-07-02T01:38:00;98700.0;;;16.9;84.4
78679;BME280;67994;59.334;13.528;2023-07-02T01:39:00;98700.0;;;16.9;84.4
78679;BME280;67994;59.334;13.528;2023-07-02T01:40:00;98700.0;;;16.9;84.4
78679;BME280;67994;59.334;13.528;2023-07-02T01:41:00;98700.0;;;16.9;84.4
78679;BME280;67994;59.334;13.528;2023-07-02T01:42:08;98700.0;;;16.9;84.4
78679;BME280;67994;59.334;13.528;2023-07-02T01:43:00;98700.0;;;16.9;84.4
78679;BME280;67994;59.334;13.528;2023-07-02T01:44:00;98700.0;;;16.9;84.4
78679;BME280;67994;59.334;13.528;2023-07-02T01:45:00;98700.0;;;16.9;84.4
78679;BME280;67994;59.334;13.528;2023-07-02T01:46:00;98700.0;;;16.9;84.4
78679;BME280;67994;59.334;13.528;2023-07-02T01:47:00;98700.0;;;16.9;84.4
78679;BME280;67994;59.334;13.528;2023-07-02T01:48:00;98700.0;;;16.9;84.4
78679;BME280;67994;59.334;13.528;2023-07-02T01:49:00;98700.0;;;16.9;84.4
78679;BME280;67994;59.334;13.528;2023-07-02T01:50:02;98700.0;;;16.9;84.4
78679;BME280;67994;59.334;13.528;2023-07-02T01:51:00;98700.0;;;16.9;84.4
78679;BME280;67994;59.334;13.528;2023-07-02T01:52:00;98700.0;;;16.9;84.4
78679;BME280;67994;59.334;13.528;2023-07-02T01:53:00;98700.0;;;16.9;84.4
78679;BME280;67994;59.334;13.528;2023-07-02T01:54:00;98700.0;;;16.9;84.4
78679;BME280;67994;59.334;13.528;2023-07-02T01:55:01;98700.0;;;16.9;84.4
78679;BME280;67994;59.334;13.528;2023-07-02T01:56:00;98700.0;;;16.9;84.4
78679;BME280;67994;59.334;13.528;2023-07-02T01:57:00;98700.0;;;16.8;85.7
78679;BME280;67994;59.334;13.528;2023-07-02T01:58:00;98600.0;;;16.6;85.5
78679;BME280;67994;59.334;13.528;2023-07-02T01:59:00;98600.0;;;16.6;85.5
78679;BME280;67994;59.334;13.528;2023-07-02T02:00:00;98600.0;;;16.7;84.6
78679;BME280;67994;59.334;13.528;2023-07-02T02:01:00;98600.0;;;16.8;85.0
78679;BME280;67994;59.334;13.528;2023-07-02T02:02:00;98600.0;;;16.8;83.9
78679;BME280;67994;59.334;13.528;2023-07-02T02:03:00;98600.0;;;16.8;83.9
78679;BME280;67994;59.334;13.528;2023-07-02T02:04:00;98600.0;;;16.8;84.6
78679;BME280;67994;59.334;13.528;2023-07-02T02:05:00;98600.0;;;16.9;83.3
78679;BME280;67994;59.334;13.528;2023-07-02T02:06:01;98600.0;;;16.8;84.3
78679;BME280;67994;59.334;13.528;2023-07-02T02:07:00;98600.0;;;16.8;83.9
78679;BME280;67994;59.334;13.528;2023-07-02T02:08:00;98600.0;;;16.9;83.7
78679;BME280;67994;59.334;13.528;2023-07-02T02:09:00;98600.0;;;16.8;84.5
78679;BME280;67994;59.334;13.528;2023-07-02T02:10:00;98600.0;;;16.8;83.9
78679;BME280;67994;59.334;13.528;2023-07-02T02:11:00;98600.0;;;16.8;83.9
78679;BME280;67994;59.334;13.528;2023-07-02T02:12:00;98600.0;;;16.7;85.1
78679;BME280;67994;59.334;13.528;2023-07-02T02:13:00;98600.0;;;16.8;84.8
78679;BME280;67994;59.334;13.528;2023-07-02T02:14:00;98600.0;;;16.9;84.8
78679;BME280;67994;59.334;13.528;2023-07-02T02:15:00;98600.0;;;16.7;84.9
78679;BME280;67994;59.334;13.528;2023-07-02T02:16:00;98600.0;;;16.8;84.3
78679;BME280;67994;59.334;13.528;2023-07-02T02:17:00;98600.0;;;16.9;83.5
78679;BME280;67994;59.334;13.528;2023-07-02T02:18:00;98600.0;;;16.9;84.3
78679;BME280;67994;59.334;13.528;2023-07-02T02:19:00;98600.0;;;16.8;84.3
78679;BME280;67994;59.334;13.528;2023-07-02T02:20:00;98600.0;;;16.9;83.8
78679;BME280;67994;59.334;13.528;2023-07-02T02:21:00;98600.0;;;16.8;84.3
78679;BME280;67994;59.334;13.528;2023-07-02T02:22:00;98600.0;;;16.9;84.3
78679;BME280;67994;59.334;13.528;2023-07-02T02:23:00;98600.0;;;16.8;84.3
78679;BME280;67994;59.334;13.528;2023-07-02T02:24:00;98600.0;;;16.9;83.5
78679;BME280;67994;59.334;13.528;2023-07-02T02:25:00;98600.0;;;16.9;83.6
78679;BME280;67994;59.334;13.528;2023-07-02T02:26:00;98600.0;;;16.8;84.9
78679;BME280;67994;59.334;13.528;2023-07-02T02:27:00;98600.0;;;16.8;83.8
78679;BME280;67994;59.334;13.528;2023-07-02T02:28:00;98600.0;;;16.9;83.1
78679;BME280;67994;59.334;13.528;2023-07-02T02:29:00;98600.0;;;16.9;83.8
78679;BME280;67994;59.334;13.528;2023-07-02T02:30:00;98600.0;;;16.9;83.6
78679;BME280;67994;59.334;13.528;2023-07-02T02:31:00;98600.0;;;16.9;83.6
78679;BME280;67994;59.334;13.528;2023-07-02T02:32:00;98600.0;;;16.9;83.6
78679;BME280;67994;59.334;13.528;2023-07-02T02:33:00;98600.0;;;16.9;83.3
78679;BME280;67994;59.334;13.528;2023-07-02T02:34:00;98600.0;;;17.0;83.6
78679;BME280;67994;59.334;13.528;2023-07-02T02:35:00;98600.0;;;16.9;83.4
78679;BME280;67994;59.334;13.528;2023-07-02T02:36:00;98600.0;;;16.9;83.4
78679;BME280;67994;59.334;13.528;2023-07-02T02:37:00;98600.0;;;16.9;83.8
78679;BME280;67994;59.334;13.528;2023-07-02T02:38:01;98600.0;;;16.8;84.6
78679;BME280;67994;59.334;13.528;2023-07-02T02:39:00;98600.0;;;16.8;84.3
78679;BME280;67994;59.334;13.528;2023-07-02T02:40:00;98600.0;;;16.9;83.6
78679;BME280;67994;59.334;13.528;2023-07-02T02:41:00;98600.0;;;16.9;83.6
78679;BME280;67994;59.334;13.528;2023-07-02T02:42:00;98600.0;;;16.8;84.3
78679;BME280;67994;59.334;13.528;2023-07-02T02:43:00;98600.0;;;16.9;84.1
78679;BME280;67994;59.334;13.528;2023-07-02T02:44:00;98600.0;;;16.9;84.1
78679;BME280;67994;59.334;13.528;2023-07-02T02:45:00;98600.0;;;16.9;84.2
78679;BME280;67994;59.334;13.528;2023-07-02T02:46:00;98600.0;;;16.8;84.1
78679;BME280;67994;59.334;13.528;2023-07-02T02:47:00;98600.0;;;16.9;84.3
78679;BME280;67994;59.334;13.528;2023-07-02T02:48:00;98600.0;;;16.8;84.8
78679;BME280;67994;59.334;13.528;2023-07-02T02:49:00;98600.0;;;16.8;83.4
78679;BME280;67994;59.334;13.528;2023-07-02T02:50:00;98600.0;;;16.8;83.4
78679;BME280;67994;59.334;13.528;2023-07-02T02:51:00;98600.0;;;16.9;83.8
78679;BME280;67994;59.334;13.528;2023-07-02T02:52:00;98600.0;;;16.8;84.3
78679;BME280;67994;59.334;13.528;2023-07-02T02:53:00;98600.0;;;16.8;84.0
78679;BME280;67994;59.334;13.528;2023-07-02T02:54:00;98600.0;;;16.9;83.2
78679;BME280;67994;59.334;13.528;2023-07-02T02:55:00;98600.0;;;16.9;84.2
78679;BME280;67994;59.334;13.528;2023-07-02T02:56:00;98600.0;;;16.7;85.0
78679;BME280;67994;59.334;13.528;2023-07-02T02:57:00;98600.0;;;16.8;83.8
78679;BME280;67994;59.334;13.528;2023-07-02T02:58:00;98600.0;;;16.9;84.0
78679;BME280;67994;59.334;13.528;2023-07-02T02:59:00;98600.0;;;16.8;83.4
78679;BME280;67994;59.334;13.528;2023-07-02T03:00:00;98600.0;;;16.8;83.7
78679;BME280;67994;59.334;13.528;2023-07-02T03:01:00;98600.0;;;16.9;83.7
78679;BME280;67994;59.334;13.528;2023-07-02T03:02:00;98600.0;;;16.9;84.5
78679;BME280;67994;59.334;13.528;2023-07-02T03:03:00;98600.0;;;16.9;83.4
78679;BME280;67994;59.334;13.528;2023-07-02T03:04:00;98600.0;;;16.8;83.9
78679;BME280;67994;59.334;13.528;2023-07-02T03:05:00;98600.0;;;16.8;84.3
78679;BME280;67994;59.334;13.528;2023-07-02T03:06:00;98600.0;;;16.9;84.0
78679;BME280;67994;59.334;13.528;2023-07-02T03:07:00;98600.0;;;16.9;83.7
78679;BME280;67994;59.334;13.528;2023-07-02T03:08:00;98600.0;;;16.9;83.5
78679;BME280;67994;59.334;13.528;2023-07-02T03:09:00;98600.0;;;16.9;83.4
78679;BME280;67994;59.334;13.528;2023-07-02T03:10:00;98600.0;;;16.9;83.7
78679;BME280;67994;59.334;13.528;2023-07-02T03:11:00;98600.0;;;16.9;82.5
78679;BME280;67994;59.334;13.528;2023-07-02T03:12:00;98600.0;;;16.8;84.3
78679;BME280;67994;59.334;13.528;2023-07-02T03:13:00;98600.0;;;16.8;84.5
78679;BME280;67994;59.334;13.528;2023-07-02T03:14:00;98600.0;;;16.8;84.9
78679;BME280;67994;59.334;13.528;2023-07-02T03:15:00;98600.0;;;16.8;82.5
78679;BME280;67994;59.334;13.528;2023-07-02T03:16:00;98500.0;;;16.9;83.4
78679;BME280;67994;59.334;13.528;2023-07-02T03:17:00;98500.0;;;17.0;83.7
78679;BME280;67994;59.334;13.528;2023-07-02T03:18:00;98500.0;;;16.9;83.1
78679;BME280;67994;59.334;13.528;2023-07-02T03:19:00;98500.0;;;16.8;83.8
78679;BME280;67994;59.334;13.528;2023-07-02T03:20:00;98500.0;;;16.8;84.3
78679;BME280;67994;59.334;13.528;2023-07-02T03:21:00;98500.0;;;16.8;84.7
78679;BME280;67994;59.334;13.528;2023-07-02T03:22:00;98500.0;;;16.9;84.9
78679;BME280;67994;59.334;13.528;2023-07-02T03:23:00;98500.0;;;16.8;83.8
78679;BME280;67994;59.334;13.528;2023-07-02T03:24:00;98500.0;;;16.8;83.8
78679;BME280;67994;59.334;13.528;2023-07-02T03:25:00;98500.0;;;16.9;83.3
78679;BME280;67994;59.334;13.528;2023-07-02T03:26:00;98500.0;;;16.8;85.0
78679;BME280;67994;59.334;13.528;2023-07-02T03:27:00;98500.0;;;16.6;85.6
78679;BME280;67994;59.334;13.528;2023-07-02T03:28:00;98500.0;;;16.6;85.8
78679;BME280;67994;59.334;13.528;2023-07-02T03:29:00;98500.0;;;16.7;85.0
78679;BME280;67994;59.334;13.528;2023-07-02T03:30:00;98500.0;;;16.8;84.8
78679;BME280;67994;59.334;13.528;2023-07-02T03:31:00;98500.0;;;16.9;85.1
78679;BME280;67994;59.334;13.528;2023-07-02T03:32:00;98500.0;;;16.7;85.1
78679;BME280;67994;59.334;13.528;2023-07-02T03:33:00;98500.0;;;16.7;84.2
78679;BME280;67994;59.334;13.528;2023-07-02T03:34:03;98500.0;;;16.7;84.7
78679;BME280;67994;59.334;13.528;2023-07-02T03:35:00;98500.0;;;16.7;84.4
78679;BME280;67994;59.334;13.528;2023-07-02T03:36:00;98500.0;;;16.7;84.8
78679;BME280;67994;59.334;13.528;2023-07-02T03:37:00;98500.0;;;16.7;84.7
78679;BME280;67994;59.334;13.528;2023-07-02T03:38:00;98500.0;;;16.7;84.5
78679;BME280;67994;59.334;13.528;2023-07-02T03:39:00;98500.0;;;16.8;83.5
78679;BME280;67994;59.334;13.528;2023-07-02T03:40:00;98500.0;;;16.8;84.9
78679;BME280;67994;59.334;13.528;2023-07-02T03:41:00;98500.0;;;16.8;84.6
78679;BME280;67994;59.334;13.528;2023-07-02T03:42:00;98500.0;;;16.7;84.3
78679;BME280;67994;59.334;13.528;2023-07-02T03:43:00;98500.0;;;16.7;84.6
78679;BME280;67994;59.334;13.528;2023-07-02T03:44:00;98500.0;;;16.8;83.5
78679;BME280;67994;59.334;13.528;2023-07-02T03:45:00;98500.0;;;16.8;83.3
78679;BME280;67994;59.334;13.528;2023-07-02T03:46:00;98500.0;;;16.9;84.7
78679;BME280;67994;59.334;13.528;2023-07-02T03:47:00;98500.0;;;16.8;84.7
78679;BME280;67994;59.334;13.528;2023-07-02T03:48:00;98500.0;;;16.7;84.9
78679;BME280;67994;59.334;13.528;2023-07-02T03:49:00;98500.0;;;16.7;84.8
78679;BME280;67994;59.334;13.528;2023-07-02T03:50:01;98500.0;;;16.8;83.6
78679;BME280;67994;59.334;13.528;2023-07-02T03:51:01;98500.0;;;16.9;84.9
78679;BME280;67994;59.334;13.528;2023-07-02T03:52:00;98500.0;;;16.8;84.4
78679;BME280;67994;59.334;13.528;2023-07-02T03:53:00;98500.0;;;16.9;83.8
78679;BME280;67994;59.334;13.528;2023-07-02T03:54:00;98500.0;;;16.9;85.1
78679;BME280;67994;59.334;13.528;2023-07-02T03:55:00;98500.0;;;16.9;83.8
78679;BME280;67994;59.334;13.528;2023-07-02T03:56:00;98500.0;;;16.9;83.8
78679;BME280;67994;59.334;13.528;2023-07-02T03:57:00;98500.0;;;16.9;83.7
78679;BME280;67994;59.334;13.528;2023-07-02T03:58:00;98500.0;;;16.9;83.8
78679;BME280;67994;59.334;13.528;2023-07-02T03:59:00;98500.0;;;16.9;84.0
78679;BME280;67994;59.334;13.528;2023-07-02T04:00:00;98500.0;;;16.9;83.2
78679;BME280;67994;59.334;13.528;2023-07-02T04:01:00;98500.0;;;17.0;82.9
78679;BME280;67994;59.334;13.528;2023-07-02T04:02:00;98500.0;;;16.9;83.9
78679;BME280;67994;59.334;13.528;2023-07-02T04:03:00;98500.0;;;16.9;84.3
78679;BME280;67994;59.334;13.528;2023-07-02T04:04:00;98500.0;;;16.9;84.7
78679;BME280;67994;59.334;13.528;2023-07-02T04:05:00;98500.0;;;16.9;85.7
78679;BME280;67994;59.334;13.528;2023-07-02T04:06:00;98500.0;;;16.7;86.0
78679;BME280;67994;59.334;13.528;2023-07-02T04:07:00;98500.0;;;16.7;86.0
78679;BME280;67994;59.334;13.528;2023-07-02T04:08:00;98500.0;;;16.7;85.5
78679;BME280;67994;59.334;13.528;2023-07-02T04:09:00;98500.0;;;16.5;86.8
78679;BME280;67994;59.334;13.528;2023-07-02T04:10:00;98500.0;;;16.6;85.2
78679;BME280;67994;59.334;13.528;2023-07-02T04:11:00;98500.0;;;16.8;85.0
78679;BME280;67994;59.334;13.528;2023-07-02T04:12:00;98500.0;;;16.8;85.0
78679;BME280;67994;59.334;13.528;2023-07-02T04:13:00;98500.0;;;16.8;85.7
78679;BME280;67994;59.334;13.528;2023-07-02T04:14:00;98500.0;;;16.7;85.1
78679;BME280;67994;59.334;13.528;2023-07-02T04:15:00;98500.0;;;16.7;85.6
78679;BME280;67994;59.334;13.528;2023-07-02T04:16:00;98500.0;;;16.8;85.7
78679;BME280;67994;59.334;13.528;2023-07-02T04:17:01;98500.0;;;16.7;85.2
78679;BME280;67994;59.334;13.528;2023-07-02T04:18:00;98500.0;;;16.8;85.2
78679;BME280;67994;59.334;13.528;2023-07-02T04:19:00;98500.0;;;16.8;85.0
78679;BME280;67994;59.334;13.528;2023-07-02T04:20:01;98500.0;;;16.8;85.4
78679;BME280;67994;59.334;13.528;2023-07-02T04:21:01;98500.0;;;16.7;85.5
78679;BME280;67994;59.334;13.528;2023-07-02T04:22:00;98500.0;;;16.7;85.5
78679;BME280;67994;59.334;13.528;2023-07-02T04:23:00;98500.0;;;16.9;85.0
78679;BME280;67994;59.334;13.528;2023-07-02T04:24:00;98500.0;;;16.9;84.3
78679;BME280;67994;59.334;13.528;2023-07-02T04:25:00;98500.0;;;16.9;83.9
78679;BME280;67994;59.334;13.528;2023-07-02T04:26:00;98500.0;;;17.0;85.3
78679;BME280;67994;59.334;13.528;2023-07-02T04:27:00;98500.0;;;17.0;84.7
78679;BME280;67994;59.334;13.528;2023-07-02T04:28:00;98500.0;;;16.9;84.8
78679;BME280;67994;59.334;13.528;2023-07-02T04:29:00;98500.0;;;17.1;84.5
78679;BME280;67994;59.334;13.528;2023-07-02T04:30:00;98500.0;;;17.1;84.0
78679;BME280;67994;59.334;13.528;2023-07-02T04:31:00;98500.0;;;17.0;84.9
78679;BME280;67994;59.334;13.528;2023-07-02T04:32:00;98500.0;;;17.1;84.4
78679;BME280;67994;59.334;13.528;2023-07-02T04:33:00;98500.0;;;16.9;84.1
78679;BME280;67994;59.334;13.528;2023-07-02T04:34:00;98500.0;;;17.1;83.3
78679;BME280;67994;59.334;13.528;2023-07-02T04:35:00;98500.0;;;17.1;84.3
78679;BME280;67994;59.334;13.528;2023-07-02T04:36:00;98500.0;;;17.0;84.0
78679;BME280;67994;59.334;13.528;2023-07-02T04:37:00;98500.0;;;17.0;84.2
78679;BME280;67994;59.334;13.528;2023-07-02T04:38:00;98500.0;;;17.1;83.4
78679;BME280;67994;59.334;13.528;2023-07-02T04:39:00;98500.0;;;17.0;83.7
78679;BME280;67994;59.334;13.528;2023-07-02T04:40:00;98500.0;;;17.0;83.6
78679;BME280;67994;59.334;13.528;2023-07-02T04:41:00;98500.0;;;16.9;84.0
78679;BME280;67994;59.334;13.528;2023-07-02T04:42:00;98500.0;;;16.9;83.8
78679;BME280;67994;59.334;13.528;2023-07-02T04:43:00;98500.0;;;16.9;83.8
78679;BME280;67994;59.334;13.528;2023-07-02T04:44:00;98500.0;;;17.0;83.9
78679;BME280;67994;59.334;13.528;2023-07-02T04:45:00;98500.0;;;17.0;84.8
78679;BME280;67994;59.334;13.528;2023-07-02T04:46:00;98500.0;;;17.0;84.1
78679;BME280;67994;59.334;13.528;2023-07-02T04:47:01;98500.0;;;17.0;84.1
78679;BME280;67994;59.334;13.528;2023-07-02T04:48:00;98500.0;;;17.1;83.9
78679;BME280;67994;59.334;13.528;2023-07-02T04:49:00;98500.0;;;17.0;84.5
78679;BME280;67994;59.334;13.528;2023-07-02T04:50:00;98500.0;;;17.0;84.6
78679;BME280;67994;59.334;13.528;2023-07-02T04:51:00;98500.0;;;17.1;83.4
78679;BME280;67994;59.334;13.528;2023-07-02T04:52:00;98500.0;;;17.1;83.8
78679;BME280;67994;59.334;13.528;2023-07-02T04:53:00;98500.0;;;16.9;84.3
78679;BME280;67994;59.334;13.528;2023-07-02T04:54:00;98500.0;;;17.1;84.3
78679;BME280;67994;59.334;13.528;2023-07-02T04:55:02;98500.0;;;17.1;84.0
78679;BME280;67994;59.334;13.528;2023-07-02T04:56:00;98500.0;;;17.1;84.1
78679;BME280;67994;59.334;13.528;2023-07-02T04:57:00;98500.0;;;16.8;84.2
78679;BME280;67994;59.334;13.528;2023-07-02T04:58:00;98500.0;;;17.1;83.2
78679;BME280;67994;59.334;13.528;2023-07-02T04:59:00;98500.0;;;17.1;82.3
78679;BME280;67994;59.334;13.528;2023-07-02T05:00:00;98500.0;;;17.1;83.9
78679;BME280;67994;59.334;13.528;2023-07-02T05:01:00;98500.0;;;17.1;82.9
78679;BME280;67994;59.334;13.528;2023-07-02T05:02:00;98500.0;;;17.0;83.4
78679;BME280;67994;59.334;13.528;2023-07-02T05:03:00;98500.0;;;16.9;84.1
78679;BME280;67994;59.334;13.528;2023-07-02T05:04:00;98500.0;;;16.9;84.3
78679;BME280;67994;59.334;13.528;2023-07-02T05:05:00;98500.0;;;17.0;84.2
78679;BME280;67994;59.334;13.528;2023-07-02T05:06:00;98500.0;;;16.9;84.1
78679;BME280;67994;59.334;13.528;2023-07-02T05:07:00;98500.0;;;16.9;84.3
78679;BME280;67994;59.334;13.528;2023-07-02T05:08:00;98500.0;;;17.0;83.7
78679;BME280;67994;59.334;13.528;2023-07-02T05:09:00;98500.0;;;17.0;84.0
78679;BME280;67994;59.334;13.528;2023-07-02T05:10:00;98500.0;;;16.8;83.9
78679;BME280;67994;59.334;13.528;2023-07-02T05:11:00;98500.0;;;16.9;84.1
78679;BME280;67994;59.334;13.528;2023-07-02T05:12:00;98500.0;;;17.2;83.1
78679;BME280;67994;59.334;13.528;2023-07-02T05:13:00;98500.0;;;17.3;83.9
78679;BME280;67994;59.334;13.528;2023-07-02T05:14:00;98500.0;;;17.4;82.4
78679;BME280;67994;59.334;13.528;2023-07-02T05:15:00;98500.0;;;17.3;83.4
78679;BME280;67994;59.334;13.528;2023-07-02T05:16:00;98500.0;;;17.3;83.8
78679;BME280;67994;59.334;13.528;2023-07-02T05:17:00;98500.0;;;17.1;84.4
78679;BME280;67994;59.334;13.528;2023-07-02T05:18:00;98500.0;;;17.1;83.4
78679;BME280;67994;59.334;13.528;2023-07-02T05:19:00;98500.0;;;17.2;83.7
78679;BME280;67994;59.334;13.528;2023-07-02T05:20:00;98500.0;;;17.2;83.7
78679;BME280;67994;59.334;13.528;2023-07-02T05:21:00;98500.0;;;17.1;83.4
78679;BME280;67994;59.334;13.528;2023-07-02T05:22:00;98500.0;;;17.1;84.2
78679;BME280;67994;59.334;13.528;2023-07-02T05:23:00;98500.0;;;17.1;84.1
78679;BME280;67994;59.334;13.528;2023-07-02T05:24:00;98500.0;;;17.4;82.5
78679;BME280;67994;59.334;13.528;2023-07-02T05:25:00;98500.0;;;17.4;82.5
78679;BME280;67994;59.334;13.528;2023-07-02T05:26:01;98500.0;;;17.3;84.2